Time;durP1;ratioP1;P1;durP2;ratioP2;P2;SDS_P1;SDS_P2;PMS_P1;PMS_P2;Temp;Humidity;BMP_temperature;BMP_pressure;BME280_temperature;BME280_humidity;BME280_pressure;Samples;Min_cycle;Max_cycle;Signal;HPM_P1;HPM_P2
2023/07/27 07:03:06;;;;;;;;;0.25;0.25;;;;;21.84;60.43;100482.13;5132622;27;45237;-73
2023/07/27 07:05:31;;;;;;;;;1.75;1.25;;;;;21.98;60.57;100499.84;5115132;27;45310;-72
2023/07/27 07:07:56;;;;;;;;;0.75;0.75;;;;;21.85;59.98;100456.72;5115044;27;45571;-73
2023/07/27 07:10:22;;;;;;;;;2.00;0.75;;;;;21.80;59.74;100448.41;5115115;27;45340;-73
2023/07/27 07:12:47;;;;;;;;;0.00;0.00;;;;;22.13;59.87;100489.50;5114824;27;47628;-72
2023/07/27 07:15:12;;;;;;;;;1.75;1.75;;;;;22.20;59.56;100494.00;5114810;27;58434;-72
2023/07/27 07:17:38;;;;;;;;;1.00;0.00;;;;;22.16;58.94;100486.34;5113693;27;45252;-73
2023/07/27 07:20:08;;;;;;;;;1.75;1.75;;;;;22.30;58.62;100492.44;5115215;27;45554;-72
2023/07/27 07:22:34;;;;;;;;;2.00;1.25;;;;;22.22;57.87;100484.59;5114575;27;46623;-72
2023/07/27 07:24:59;;;;;;;;;4.00;4.00;;;;;22.35;57.52;100500.72;5114783;27;45229;-73
2023/07/27 07:27:24;;;;;;;;;1.25;1.25;;;;;22.24;57.36;100482.53;5114525;27;45459;-74
2023/07/27 07:29:49;;;;;;;;;2.50;1.50;;;;;22.37;57.29;100505.91;5114811;27;45323;-74
2023/07/27 07:32:15;;;;;;;;;1.00;1.00;;;;;22.35;56.24;100494.47;5114502;27;48806;-72
2023/07/27 07:34:40;;;;;;;;;4.25;2.00;;;;;22.25;55.23;100467.09;5130362;27;45341;-72
2023/07/27 07:37:06;;;;;;;;;2.00;2.00;;;;;22.42;54.59;100490.59;5114568;27;45501;-73
2023/07/27 07:39:31;;;;;;;;;3.00;1.00;;;;;22.48;53.85;100483.47;5114880;27;45539;-72
2023/07/27 07:41:57;;;;;;;;;2.25;1.00;;;;;22.56;54.22;100512.94;5114272;27;46521;-81
2023/07/27 07:44:23;;;;;;;;;3.00;2.00;;;;;22.67;54.30;100504.06;5112991;27;45420;-73
2023/07/27 07:46:48;;;;;;;;;2.00;2.00;;;;;22.86;53.57;100531.16;5114635;27;45321;-73
2023/07/27 07:49:13;;;;;;;;;1.67;1.33;;;;;22.93;52.71;100523.75;5112975;27;45995;-72
2023/07/27 07:51:38;;;;;;;;;2.33;2.33;;;;;22.86;52.38;100506.75;5114326;27;46429;-71
2023/07/27 07:54:07;;;;;;;;;6.00;3.67;;;;;23.09;52.23;100523.09;5114157;27;45250;-72
2023/07/27 07:56:33;;;;;;;;;2.67;1.33;;;;;22.99;52.12;100511.97;5114333;27;45329;-72
2023/07/27 07:58:58;;;;;;;;;2.75;1.75;;;;;23.13;52.23;100501.75;5114249;27;45467;-73
2023/07/27 08:01:23;;;;;;;;;2.50;2.50;;;;;23.46;51.58;100525.66;5111462;27;66408;-74
2023/07/27 08:03:49;;;;;;;;;3.00;3.00;;;;;23.53;51.25;100501.94;5113526;27;62010;-73
2023/07/27 08:06:14;;;;;;;;;3.50;2.00;;;;;23.46;50.20;100525.66;5114204;27;45236;-73
2023/07/27 08:08:40;;;;;;;;;1.00;1.00;;;;;23.41;50.51;100515.47;5114306;27;45500;-72
2023/07/27 08:11:06;;;;;;;;;2.00;2.00;;;;;23.49;50.51;100522.47;5113773;27;46025;-71
2023/07/27 08:13:31;;;;;;;;;1.00;1.00;;;;;23.58;50.58;100510.22;5105128;27;45270;-73
2023/07/27 08:15:57;;;;;;;;;1.00;1.00;;;;;23.78;50.89;100510.69;5100338;27;46463;-72
2023/07/27 08:18:23;;;;;;;;;2.25;1.50;;;;;23.91;50.18;100501.50;5100344;27;45323;-72
2023/07/27 08:21:03;;;;;;;;;2.00;2.00;;;;;23.73;49.91;100450.88;5099678;27;46530;-72
2023/07/27 08:23:28;;;;;;;;;1.25;1.00;;;;;24.29;49.24;100505.59;5098802;27;45332;-72
2023/07/27 08:25:54;;;;;;;;;1.50;1.00;;;;;24.24;48.97;100490.00;5100140;27;45490;-72
2023/07/27 08:28:20;;;;;;;;;2.50;0.50;;;;;24.45;48.86;100505.69;5099885;27;45338;-72
2023/07/27 08:30:46;;;;;;;;;1.00;1.00;;;;;24.46;48.59;100493.75;5099554;27;46534;-73
2023/07/27 08:33:12;;;;;;;;;0.00;0.00;;;;;24.50;48.64;100475.06;5099635;27;45537;-72
2023/07/27 08:35:38;;;;;;;;;0.25;0.25;;;;;24.57;48.07;100487.44;5100093;27;45181;-73
2023/07/27 08:38:04;;;;;;;;;1.00;1.00;;;;;24.60;47.84;100480.69;5100099;27;45218;-72
2023/07/27 08:40:29;;;;;;;;;0.00;0.00;;;;;24.65;48.02;100497.09;5098526;27;48225;-72
2023/07/27 08:42:55;;;;;;;;;1.75;1.75;;;;;24.51;48.04;100477.53;5099410;27;45309;-71
2023/07/27 08:45:21;;;;;;;;;1.00;1.00;;;;;24.62;47.90;100488.59;5099724;27;45356;-72
2023/07/27 08:47:52;;;;;;;;;3.00;2.00;;;;;24.60;48.08;100491.56;5098462;27;45515;-73
2023/07/27 08:50:19;;;;;;;;;0.75;0.75;;;;;24.59;47.94;100487.19;5099538;27;45691;-72
2023/07/27 08:52:45;;;;;;;;;2.25;2.25;;;;;24.26;48.26;100419.94;5099469;27;45226;-71
2023/07/27 08:55:11;;;;;;;;;2.00;1.00;;;;;24.69;48.04;100483.84;5099651;27;45518;-71
2023/07/27 08:57:36;;;;;;;;;1.75;1.00;;;;;24.54;48.13;100466.19;5099373;27;45535;-72
2023/07/27 09:00:02;;;;;;;;;2.00;1.00;;;;;24.49;47.88;100463.38;5097959;27;47677;-72
2023/07/27 09:02:28;;;;;;;;;1.00;1.00;;;;;24.44;47.97;100490.44;5099238;27;45335;-72
2023/07/27 09:04:53;;;;;;;;;1.00;1.00;;;;;24.42;48.21;100473.53;5099295;27;45340;-70
2023/07/27 09:07:18;;;;;;;;;3.00;1.67;;;;;24.45;48.39;100480.41;5098520;27;45624;-71
2023/07/27 09:09:53;;;;;;;;;1.00;1.00;;;;;24.46;48.69;100496.47;5098392;27;70507;-72
2023/07/27 09:12:22;;;;;;;;;1.00;1.00;;;;;24.22;48.50;100462.22;5098553;27;45303;-73
2023/07/27 09:14:47;;;;;;;;;1.00;1.00;;;;;24.42;48.79;100489.00;5097918;27;45308;-72
2023/07/27 09:17:13;;;;;;;;;1.00;1.00;;;;;24.45;48.40;100500.25;5099149;27;45480;-74
2023/07/27 09:19:41;;;;;;;;;1.25;0.25;;;;;24.25;48.02;100480.78;5098857;27;45598;-73
2023/07/27 09:22:07;;;;;;;;;1.25;1.25;;;;;24.35;47.80;100504.63;5098715;27;45496;-72
2023/07/27 09:24:33;;;;;;;;;3.00;2.00;;;;;24.42;48.24;100506.13;5097887;27;45534;-71
2023/07/27 09:27:01;;;;;;;;;1.00;1.00;;;;;24.34;47.84;100487.50;5099039;27;45442;-74
2023/07/27 09:29:27;;;;;;;;;0.00;0.00;;;;;24.38;47.83;100496.81;5098782;27;46634;-72
2023/07/27 09:31:57;;;;;;;;;1.00;1.00;;;;;24.48;47.90;100493.50;5098789;27;45409;-73
2023/07/27 09:34:23;;;;;;;;;1.00;1.00;;;;;24.54;47.46;100487.91;5099203;27;45330;-72
2023/07/27 09:36:48;;;;;;;;;1.00;1.00;;;;;24.63;47.64;100479.38;5098867;27;45424;-72
2023/07/27 09:39:17;;;;;;;;;3.00;3.00;;;;;24.76;46.77;100490.78;5098562;27;45748;-72
2023/07/27 09:41:44;;;;;;;;;2.00;1.00;;;;;24.79;46.74;100503.06;5098501;27;45500;-72
2023/07/27 09:44:17;;;;;;;;;1.00;1.00;;;;;24.88;47.23;100496.19;5098590;27;45245;-72
2023/07/27 09:46:44;;;;;;;;;0.75;0.50;;;;;24.90;46.47;100485.06;5099254;27;45618;-71
2023/07/27 09:49:11;;;;;;;;;2.33;2.33;;;;;24.91;46.64;100482.09;5097205;27;46457;-70
2023/07/27 09:51:37;;;;;;;;;2.00;1.00;;;;;25.06;46.44;100498.72;5098575;27;45535;-73
2023/07/27 09:54:04;;;;;;;;;2.00;1.25;;;;;24.90;46.39;100482.31;5098711;27;45439;-74
2023/07/27 09:56:31;;;;;;;;;0.50;0.50;;;;;24.72;46.52;100440.69;5098761;27;45485;-71
2023/07/27 09:58:58;;;;;;;;;0.00;0.00;;;;;25.04;46.18;100486.44;5098055;27;46604;-71
2023/07/27 10:01:24;;;;;;;;;0.25;0.25;;;;;24.95;46.46;100476.97;5098341;27;45257;-71
2023/07/27 10:03:49;;;;;;;;;4.33;4.33;;;;;25.06;46.64;100474.22;5098443;27;45402;-71
2023/07/27 10:06:17;;;;;;;;;1.25;1.25;;;;;24.99;46.23;100467.25;5098546;27;45549;-72
2023/07/27 10:08:44;;;;;;;;;1.00;1.00;;;;;25.01;46.39;100468.69;5098265;27;45676;-72
2023/07/27 10:11:10;;;;;;;;;1.00;1.00;;;;;24.99;46.39;100492.59;5097897;27;45367;-73
2023/07/27 10:13:37;;;;;;;;;3.33;1.00;;;;;24.66;46.20;100427.25;5098119;27;45393;-75
2023/07/27 10:16:08;;;;;;;;;1.00;1.00;;;;;24.96;46.42;100500.38;5098499;27;45188;-73
2023/07/27 10:18:42;;;;;;;;;2.33;2.33;;;;;24.85;46.50;100467.56;5096632;27;46712;-73
2023/07/27 10:21:28;;;;;;;;;2.50;1.25;;;;;24.94;46.46;100494.38;5098013;27;45430;-73
2023/07/27 10:24:01;;;;;;;;;1.00;1.00;;;;;24.93;46.43;100506.31;5098400;27;45415;-73
2023/07/27 10:26:43;;;;;;;;;3.67;3.67;;;;;24.81;46.63;100479.16;5098723;27;45259;-73
2023/07/27 10:29:15;;;;;;;;;4.00;3.00;;;;;24.86;46.35;100490.16;5096532;27;48336;-72
2023/07/27 10:31:42;;;;;;;;;2.75;2.50;;;;;24.90;46.47;100485.88;5096603;27;45749;-72
2023/07/27 10:34:08;;;;;;;;;1.00;1.00;;;;;24.84;46.26;100484.13;5096855;27;45277;-74
2023/07/27 10:36:52;;;;;;;;;1.00;1.00;;;;;24.86;46.61;100492.88;5097953;27;45169;-72
2023/07/27 10:39:41;;;;;;;;;1.25;1.25;;;;;24.83;46.59;100485.22;5097808;27;46472;-72
2023/07/27 10:42:12;;;;;;;;;1.00;1.00;;;;;24.82;46.69;100478.09;5097522;27;45385;-74
2023/07/27 10:44:41;;;;;;;;;1.00;1.00;;;;;24.75;47.12;100488.31;5097809;27;45236;-73
2023/07/27 10:47:23;;;;;;;;;1.00;1.00;;;;;24.03;47.57;100377.41;5098240;27;45604;-74
2023/07/27 10:49:55;;;;;;;;;2.00;2.00;;;;;24.63;47.29;100471.22;5096464;27;46470;-72
2023/07/27 10:52:28;;;;;;;;;2.00;1.00;;;;;24.75;47.27;100482.88;5097547;27;45240;-72
2023/07/27 10:54:58;;;;;;;;;3.00;1.75;;;;;24.78;47.19;100480.47;5097852;27;45346;-71
2023/07/27 10:57:29;;;;;;;;;1.25;1.25;;;;;24.69;47.08;100489.28;5098124;27;46028;-72
2023/07/27 10:59:55;;;;;;;;;1.33;1.33;;;;;24.62;47.48;100464.13;5097615;27;46977;-72
2023/07/27 11:02:23;;;;;;;;;2.67;2.00;;;;;24.72;47.62;100499.66;5097411;27;45396;-73
2023/07/27 11:04:54;;;;;;;;;1.00;1.00;;;;;24.28;47.13;100434.13;5098049;27;45229;-73
2023/07/27 11:07:37;;;;;;;;;1.00;1.00;;;;;24.56;47.40;100471.38;5098116;27;45231;-72
2023/07/27 11:10:08;;;;;;;;;2.00;2.00;;;;;24.62;47.43;100494.84;5097572;27;45975;-72
2023/07/27 11:12:45;;;;;;;;;1.50;1.00;;;;;24.62;47.80;100491.31;5097146;27;45344;-72
2023/07/27 11:15:23;;;;;;;;;2.00;2.00;;;;;24.57;48.60;100489.31;5097560;27;45447;-73
2023/07/27 11:17:50;;;;;;;;;2.00;2.00;;;;;24.54;49.04;100481.66;5097808;27;45440;-73
2023/07/27 11:20:19;;;;;;;;;2.50;2.50;;;;;24.40;49.79;100466.69;5097186;27;45542;-72
2023/07/27 11:22:49;;;;;;;;;2.00;2.00;;;;;24.40;51.21;100483.81;5097241;27;45333;-74
2023/07/27 11:25:14;;;;;;;;;1.25;1.25;;;;;24.34;50.68;100475.81;5097663;27;45284;-73
2023/07/27 11:27:40;;;;;;;;;6.33;6.33;;;;;24.39;51.14;100474.03;5097733;27;45530;-73
2023/07/27 11:30:09;;;;;;;;;4.67;4.67;;;;;24.46;51.16;100484.78;5097319;27;45431;-73
2023/07/27 11:32:34;;;;;;;;;4.25;3.00;;;;;24.40;50.57;100466.69;5097328;27;45239;-72
2023/07/27 11:35:00;;;;;;;;;3.00;1.00;;;;;24.32;50.00;100448.06;5096098;27;45224;-73
2023/07/27 11:37:29;;;;;;;;;2.75;2.25;;;;;24.47;49.89;100479.09;5096160;27;45277;-72
2023/07/27 11:39:55;;;;;;;;;2.75;2.00;;;;;24.50;50.68;100475.88;5095691;27;46717;-72
2023/07/27 11:42:30;;;;;;;;;4.00;4.00;;;;;24.43;51.52;100477.94;5095693;27;46165;-71
2023/07/27 11:44:57;;;;;;;;;5.00;2.67;;;;;24.38;51.42;100458.78;5097222;27;45437;-74
2023/07/27 11:47:23;;;;;;;;;3.67;3.00;;;;;24.48;51.33;100475.31;5097243;27;45263;-73
2023/07/27 11:49:50;;;;;;;;;3.00;3.00;;;;;24.37;50.30;100476.16;5098817;27;47815;-73
2023/07/27 11:52:17;;;;;;;;;4.00;4.00;;;;;24.33;49.97;100488.56;5100885;27;45437;-73
2023/07/27 11:54:43;;;;;;;;;5.33;4.00;;;;;24.32;50.47;100478.78;5100439;27;45314;-72
2023/07/27 11:57:08;;;;;;;;;2.25;2.25;;;;;23.95;50.90;100423.94;5100646;27;45388;-71
2023/07/27 11:59:33;;;;;;;;;5.00;3.00;;;;;24.38;51.69;100483.25;5100136;27;45897;-72
2023/07/27 12:01:59;;;;;;;;;2.67;1.33;;;;;24.34;51.36;100476.66;5100235;27;45346;-71
2023/07/27 12:04:26;;;;;;;;;2.00;2.00;;;;;24.02;51.57;100423.78;5100726;27;45446;-72
2023/07/27 12:06:54;;;;;;;;;3.33;3.33;;;;;24.39;50.99;100484.88;5100630;27;45485;-73
2023/07/27 12:09:20;;;;;;;;;3.00;3.00;;;;;24.33;50.60;100472.28;5098849;27;46929;-72
2023/07/27 12:11:45;;;;;;;;;3.33;2.00;;;;;24.30;50.07;100474.66;5100020;27;45557;-73
2023/07/27 12:14:10;;;;;;;;;4.67;4.00;;;;;24.42;50.04;100492.56;5100204;27;45232;-73
2023/07/27 12:16:38;;;;;;;;;6.00;5.00;;;;;24.43;50.12;100487.97;5100335;27;45557;-72
2023/07/27 12:19:04;;;;;;;;;3.00;3.00;;;;;24.42;50.46;100481.69;5100154;27;45722;-73
2023/07/27 12:21:29;;;;;;;;;3.67;3.33;;;;;24.54;50.28;100496.06;5100184;27;45375;-72
2023/07/27 12:23:54;;;;;;;;;2.33;2.33;;;;;24.10;49.86;100420.72;5099904;27;45284;-73
2023/07/27 12:26:20;;;;;;;;;4.33;3.00;;;;;24.51;50.00;100491.13;5100409;27;45510;-72
2023/07/27 12:28:45;;;;;;;;;7.00;4.00;;;;;24.58;50.04;100494.50;5099676;27;47567;-72
2023/07/27 12:31:10;;;;;;;;;3.33;3.33;;;;;24.19;50.28;100432.84;5100068;27;45460;-73
2023/07/27 12:33:36;;;;;;;;;4.00;3.00;;;;;24.69;49.38;100489.28;5098655;27;45680;-73
2023/07/27 12:36:01;;;;;;;;;3.00;3.00;;;;;24.50;49.60;100448.72;5098898;27;45542;-71
2023/07/27 12:38:26;;;;;;;;;3.67;3.67;;;;;24.56;49.55;100472.19;5098351;27;46247;-72
2023/07/27 12:40:52;;;;;;;;;2.00;2.00;;;;;24.71;49.61;100476.28;5099609;27;50122;-72
2023/07/27 12:43:17;;;;;;;;;3.00;3.00;;;;;24.78;49.52;100477.75;5099572;27;45468;-72
2023/07/27 12:45:43;;;;;;;;;4.67;3.67;;;;;24.75;49.60;100478.25;5099831;27;45310;-72
2023/07/27 12:48:08;;;;;;;;;1.75;1.75;;;;;24.74;49.28;100457.56;5099674;27;45730;-71
2023/07/27 12:50:33;;;;;;;;;4.00;4.00;;;;;24.46;49.97;100420.38;5099688;27;45196;-72
2023/07/27 12:52:59;;;;;;;;;3.67;3.67;;;;;24.81;50.10;100481.88;5099738;27;45323;-73
2023/07/27 12:55:24;;;;;;;;;3.00;2.00;;;;;24.35;50.22;100391.34;5099900;27;45623;-73
2023/07/27 12:57:50;;;;;;;;;0.75;0.75;;;;;24.72;50.40;100443.41;5099241;27;47649;-72
2023/07/27 13:00:16;;;;;;;;;5.50;3.25;;;;;24.70;49.81;100461.03;5099513;27;45467;-72
2023/07/27 13:02:43;;;;;;;;;3.00;3.00;;;;;24.63;50.79;100473.94;5099425;27;45339;-73
2023/07/27 13:05:12;;;;;;;;;3.67;3.67;;;;;24.48;51.58;100453.56;5099706;27;45609;-72
2023/07/27 13:07:41;;;;;;;;;2.00;2.00;;;;;24.39;52.36;100446.84;5099276;27;46804;-73
2023/07/27 13:10:08;;;;;;;;;4.00;4.00;;;;;24.50;53.09;100472.34;5099574;27;45235;-71
2023/07/27 13:12:33;;;;;;;;;3.67;3.67;;;;;24.40;53.53;100464.81;5099351;27;45367;-72
2023/07/27 13:15:02;;;;;;;;;4.00;4.00;;;;;24.32;53.97;100472.53;5115784;27;45552;-72
2023/07/27 13:17:27;;;;;;;;;6.00;4.00;;;;;24.31;55.50;100487.16;5099302;27;46284;-71
2023/07/27 13:19:52;;;;;;;;;4.33;4.33;;;;;23.85;56.51;100413.69;5099185;27;45242;-73
2023/07/27 13:22:18;;;;;;;;;3.25;3.25;;;;;24.14;55.90;100474.31;5099160;27;47733;-71
2023/07/27 13:24:43;;;;;;;;;3.25;3.25;;;;;24.02;57.13;100453.66;5099429;27;45216;-72
2023/07/27 13:27:08;;;;;;;;;6.00;5.00;;;;;23.89;57.23;100463.72;5098815;27;46046;-71
2023/07/27 13:29:34;;;;;;;;;3.50;2.00;;;;;24.04;58.35;100470.56;5099169;27;45256;-72
2023/07/27 13:31:59;;;;;;;;;2.75;2.00;;;;;23.98;58.41;100470.44;5099195;27;45206;-71
2023/07/27 13:34:24;;;;;;;;;5.67;4.00;;;;;23.90;58.24;100464.56;5098117;27;45650;-74
2023/07/27 13:36:50;;;;;;;;;4.00;4.00;;;;;23.83;59.25;100461.97;5098810;27;45439;-73
2023/07/27 13:39:15;;;;;;;;;4.00;4.00;;;;;23.86;59.39;100471.53;5099141;27;45473;-71
2023/07/27 13:41:40;;;;;;;;;5.00;4.33;;;;;23.89;58.51;100476.47;5099010;27;45159;-72
2023/07/27 13:44:09;;;;;;;;;8.33;5.67;;;;;23.56;59.03;100429.06;5098870;27;45224;-72
2023/07/27 13:46:35;;;;;;;;;5.33;5.33;;;;;23.78;59.48;100469.16;5098395;27;58147;-74
2023/07/27 13:49:00;;;;;;;;;4.33;4.33;;;;;23.47;59.14;100416.88;5098673;27;45476;-70
2023/07/27 13:51:26;;;;;;;;;5.50;4.50;;;;;23.53;58.93;100448.50;5098843;27;45290;-73
2023/07/27 13:53:51;;;;;;;;;4.25;4.25;;;;;23.61;59.72;100459.00;5099239;27;45296;-72
2023/07/27 13:56:16;;;;;;;;;5.33;5.33;;;;;23.65;59.19;100456.69;5098415;27;55499;-72
2023/07/27 13:58:42;;;;;;;;;4.33;4.33;;;;;23.55;58.77;100445.53;5098396;27;45492;-73
2023/07/27 14:01:07;;;;;;;;;3.00;3.00;;;;;23.59;59.37;100471.16;5098545;27;45263;-72
2023/07/27 14:03:32;;;;;;;;;5.75;5.75;;;;;23.47;59.62;100454.03;5098656;27;52093;-73
2023/07/27 14:05:57;;;;;;;;;6.00;5.00;;;;;23.56;59.49;100474.34;5098301;27;45823;-71
2023/07/27 14:08:23;;;;;;;;;5.67;5.67;;;;;23.57;59.68;100471.41;5098198;27;46345;-73
2023/07/27 14:10:48;;;;;;;;;3.33;3.33;;;;;23.03;59.70;100394.72;5098033;27;45479;-72
2023/07/27 14:13:14;;;;;;;;;6.00;5.00;;;;;23.53;60.32;100474.81;5098836;27;45483;-71
2023/07/27 14:15:42;;;;;;;;;4.25;4.25;;;;;23.54;60.36;100471.03;5098197;27;45557;-72
2023/07/27 14:18:07;;;;;;;;;3.75;3.75;;;;;23.36;59.95;100459.22;5098210;27;45403;-71
2023/07/27 14:20:34;;;;;;;;;4.25;4.25;;;;;23.48;61.06;100477.41;5097979;27;50126;-72
2023/07/27 14:22:59;;;;;;;;;5.00;4.33;;;;;23.26;62.00;100434.56;5097018;27;45565;-74
2023/07/27 14:25:25;;;;;;;;;10.00;7.00;;;;;23.58;62.14;100485.81;5097779;27;45650;-72
2023/07/27 14:27:50;;;;;;;;;4.33;4.33;;;;;23.44;61.91;100458.06;5097551;27;49459;-72
2023/07/27 14:30:15;;;;;;;;;4.50;4.50;;;;;23.52;61.71;100470.44;5097660;27;51405;-71
2023/07/27 14:32:40;;;;;;;;;4.67;4.67;;;;;23.56;61.76;100482.47;5098397;27;45295;-72
2023/07/27 14:35:06;;;;;;;;;7.00;7.00;;;;;23.55;61.80;100484.34;5096851;27;46716;-73
2023/07/27 14:37:31;;;;;;;;;4.00;4.00;;;;;23.52;62.26;100467.72;5096902;27;45443;-72
2023/07/27 14:39:57;;;;;;;;;5.00;5.00;;;;;23.09;62.47;100397.53;5096849;27;45343;-73
2023/07/27 14:42:22;;;;;;;;;9.00;8.67;;;;;23.40;62.70;100453.31;5096479;27;45556;-73
2023/07/27 14:44:48;;;;;;;;;1.33;1.33;;;;;23.35;61.59;100468.41;5098107;27;45597;-72
2023/07/27 14:47:14;;;;;;;;;5.00;4.33;;;;;23.30;63.09;100473.72;5098047;27;45301;-74
2023/07/27 14:49:39;;;;;;;;;11.00;9.33;;;;;23.40;63.34;100478.56;5096640;27;45586;-72
2023/07/27 14:52:05;;;;;;;;;8.00;7.67;;;;;23.34;63.29;100468.66;5098145;27;45207;-72
2023/07/27 14:54:30;;;;;;;;;9.00;9.00;;;;;23.35;63.88;100476.56;5097733;27;45428;-73
2023/07/27 14:56:55;;;;;;;;;8.00;4.33;;;;;23.28;63.65;100494.84;5097790;27;45456;-72
2023/07/27 14:59:21;;;;;;;;;4.25;4.25;;;;;23.29;63.49;100487.53;5097735;27;45293;-72
2023/07/27 15:01:47;;;;;;;;;4.67;4.67;;;;;23.25;63.69;100476.31;5097954;27;45453;-72
2023/07/27 15:04:12;;;;;;;;;6.33;6.00;;;;;23.18;63.06;100489.16;5097834;27;46705;-73
2023/07/27 15:06:38;;;;;;;;;5.33;4.00;;;;;23.07;63.20;100495.38;5113523;27;45391;-73
2023/07/27 15:09:05;;;;;;;;;5.75;5.50;;;;;23.00;62.60;100497.34;5097654;27;45520;-73
2023/07/27 15:11:30;;;;;;;;;8.00;7.00;;;;;22.91;63.26;100491.44;5096532;27;45311;-73
2023/07/27 15:13:56;;;;;;;;;4.00;4.00;;;;;22.87;63.04;100487.56;5097110;27;45570;-72
2023/07/27 15:16:21;;;;;;;;;6.75;5.75;;;;;22.52;63.41;100429.66;5097517;27;45487;-73
2023/07/27 15:18:47;;;;;;;;;15.33;15.33;;;;;22.89;64.31;100481.91;5097695;27;45459;-74
2023/07/27 15:21:12;;;;;;;;;5.00;5.00;;;;;22.90;64.20;100489.78;5113566;27;45422;-71
2023/07/27 15:23:37;;;;;;;;;9.33;7.67;;;;;22.80;64.36;100480.53;5098728;27;45702;-71
2023/07/27 15:26:05;;;;;;;;;6.33;5.00;;;;;22.71;62.99;100472.72;5100791;27;45390;-72
2023/07/27 15:28:35;;;;;;;;;5.00;5.00;;;;;22.82;64.32;100483.84;5100941;27;45263;-72
2023/07/27 15:31:03;;;;;;;;;7.00;5.33;;;;;22.69;64.39;100463.19;5101465;27;45348;-72
2023/07/27 15:33:29;;;;;;;;;7.67;5.67;;;;;22.76;63.96;100464.72;5099335;27;48345;-74
2023/07/27 15:35:54;;;;;;;;;4.25;4.25;;;;;22.84;63.89;100477.19;5100942;27;45333;-73
2023/07/27 15:38:19;;;;;;;;;4.67;3.00;;;;;22.79;63.94;100474.28;5101147;27;45435;-75
2023/07/27 15:40:50;;;;;;;;;5.75;5.50;;;;;22.45;64.07;100417.03;5101140;27;45211;-73
2023/07/27 15:43:19;;;;;;;;;10.00;6.33;;;;;22.91;64.86;100487.91;5100372;27;45775;-74
2023/07/27 15:45:45;;;;;;;;;3.33;2.00;;;;;22.88;63.65;100482.94;5099148;27;45340;-71
2023/07/27 15:48:12;;;;;;;;;7.00;7.00;;;;;22.82;63.84;100473.00;5100843;27;45232;-71
2023/07/27 15:50:37;;;;;;;;;4.00;4.00;;;;;22.77;63.74;100471.81;5100988;27;45481;-72
2023/07/27 15:53:03;;;;;;;;;4.00;3.00;;;;;22.47;64.10;100414.09;5100560;27;45423;-71
2023/07/27 15:55:28;;;;;;;;;6.25;6.25;;;;;22.62;64.33;100448.88;5100530;27;45454;-74
2023/07/27 15:57:53;;;;;;;;;9.33;6.00;;;;;22.77;64.35;100484.53;5100453;27;45351;-72
2023/07/27 16:00:19;;;;;;;;;8.67;7.67;;;;;22.37;64.64;100416.50;5099256;27;45390;-72
2023/07/27 16:02:44;;;;;;;;;8.00;8.00;;;;;22.67;65.05;100463.41;5100008;27;46504;-74
2023/07/27 16:05:12;;;;;;;;;6.67;4.33;;;;;22.69;64.41;100477.56;5099033;27;46340;-73
2023/07/27 16:07:38;;;;;;;;;5.00;3.33;;;;;22.65;64.90;100472.84;5100616;27;45313;-73
2023/07/27 16:10:05;;;;;;;;;4.67;4.67;;;;;22.68;65.56;100462.34;5100926;27;45245;-74
2023/07/27 16:12:30;;;;;;;;;4.67;4.00;;;;;22.69;65.76;100465.88;5099895;27;46347;-71
2023/07/27 16:14:56;;;;;;;;;6.00;5.67;;;;;22.67;65.79;100455.28;5100420;27;45277;-72
2023/07/27 16:17:22;;;;;;;;;7.33;6.67;;;;;22.68;65.79;100470.47;5116384;27;45218;-72
2023/07/27 16:19:47;;;;;;;;;6.00;5.00;;;;;22.63;65.52;100459.50;5100787;27;45613;-73
2023/07/27 16:22:13;;;;;;;;;5.33;4.33;;;;;22.25;65.36;100402.94;5099903;27;46527;-71
2023/07/27 16:24:38;;;;;;;;;4.67;4.67;;;;;22.68;65.38;100466.94;5099828;27;45430;-72
2023/07/27 16:27:04;;;;;;;;;9.00;9.00;;;;;22.66;65.63;100472.59;5099932;27;45472;-74
2023/07/27 16:29:32;;;;;;;;;4.00;4.00;;;;;22.61;65.80;100461.59;5116172;27;45504;-72
2023/07/27 16:31:57;;;;;;;;;6.00;4.33;;;;;22.64;66.15;100454.91;5099961;27;46566;-73
2023/07/27 16:34:22;;;;;;;;;5.67;5.67;;;;;22.60;66.24;100448.28;5097879;27;45287;-74
2023/07/27 16:36:47;;;;;;;;;4.25;4.25;;;;;22.58;65.28;100434.97;5099332;27;59204;-73
2023/07/27 16:39:13;;;;;;;;;3.00;3.00;;;;;22.55;66.24;100435.44;5100044;27;45631;-72
2023/07/27 16:41:38;;;;;;;;;5.67;4.00;;;;;22.48;65.65;100429.28;5097795;27;47428;-73
2023/07/27 16:44:03;;;;;;;;;4.00;3.00;;;;;22.62;65.38;100441.56;5099389;27;45362;-73
2023/07/27 16:46:29;;;;;;;;;23.67;20.33;;;;;22.62;65.90;100444.28;5098689;27;58878;-73
2023/07/27 16:48:54;;;;;;;;;3.00;3.00;;;;;22.25;65.47;100367.72;5099957;27;45180;-74
2023/07/27 16:51:19;;;;;;;;;11.33;11.33;;;;;22.61;66.15;100422.84;5099509;27;45445;-74
2023/07/27 16:53:45;;;;;;;;;5.00;4.00;;;;;22.69;65.26;100431.47;5099718;27;45250;-71
2023/07/27 16:56:11;;;;;;;;;2.00;0.67;;;;;22.75;65.27;100435.16;5099779;27;45308;-72
2023/07/27 16:58:37;;;;;;;;;4.00;4.00;;;;;22.74;65.79;100428.91;5099772;27;45433;-71
2023/07/27 17:01:02;;;;;;;;;4.00;4.00;;;;;22.71;65.32;100426.66;5098147;27;47931;-72
2023/07/27 17:03:30;;;;;;;;;5.00;3.67;;;;;22.59;65.41;100404.09;5099246;27;45448;-74
2023/07/27 17:05:56;;;;;;;;;4.67;4.67;;;;;22.66;65.62;100412.16;5099561;27;45293;-71
2023/07/27 17:08:22;;;;;;;;;5.67;4.67;;;;;22.63;65.81;100410.75;5099622;27;45259;-73
2023/07/27 17:10:58;;;;;;;;;6.00;5.00;;;;;22.45;65.68;100391.84;5099424;27;45540;-72
2023/07/27 17:13:23;;;;;;;;;8.33;5.33;;;;;22.55;66.02;100408.34;5098994;27;45516;-72
2023/07/27 17:16:01;;;;;;;;;4.00;2.33;;;;;22.60;65.49;100411.19;5097946;27;45426;-72
2023/07/27 17:18:26;;;;;;;;;4.67;4.67;;;;;22.59;65.15;100420.38;5099404;27;45509;-72
2023/07/27 17:20:55;;;;;;;;;5.67;5.33;;;;;22.57;65.67;100410.81;5099133;27;46363;-73
2023/07/27 17:23:21;;;;;;;;;4.00;4.00;;;;;22.56;65.16;100412.69;5098975;27;45429;-71
2023/07/27 17:25:47;;;;;;;;;7.33;5.33;;;;;22.53;65.24;100410.47;5099245;27;45350;-72
2023/07/27 17:28:12;;;;;;;;;4.00;4.00;;;;;22.58;65.76;100415.19;5098953;27;45257;-73
2023/07/27 17:30:38;;;;;;;;;5.00;4.00;;;;;22.17;65.43;100341.78;5099085;27;45434;-74
2023/07/27 17:33:03;;;;;;;;;4.00;4.00;;;;;22.53;65.96;100409.63;5098936;27;45259;-71
2023/07/27 17:35:28;;;;;;;;;3.00;3.00;;;;;22.50;65.57;100405.50;5099002;27;45165;-72
2023/07/27 17:37:54;;;;;;;;;4.50;3.25;;;;;21.83;65.83;100307.25;5099318;27;45422;-72
2023/07/27 17:40:19;;;;;;;;;3.50;3.50;;;;;22.52;66.04;100403.38;5098583;27;45513;-71
2023/07/27 17:42:44;;;;;;;;;5.00;4.00;;;;;22.51;65.94;100400.91;5098496;27;45510;-74
2023/07/27 17:45:10;;;;;;;;;6.00;4.25;;;;;22.39;66.10;100369.19;5098371;27;45188;-73
2023/07/27 17:47:35;;;;;;;;;4.75;3.75;;;;;22.22;65.66;100340.25;5097004;27;45422;-71
2023/07/27 17:50:01;;;;;;;;;5.75;4.25;;;;;22.45;65.60;100378.28;5096503;27;71395;-72
2023/07/27 17:52:26;;;;;;;;;3.33;3.33;;;;;22.38;65.88;100366.69;5098913;27;45189;-72
2023/07/27 17:54:51;;;;;;;;;3.25;3.25;;;;;22.43;66.08;100370.41;5098104;27;57658;-72
2023/07/27 17:57:17;;;;;;;;;4.67;3.33;;;;;22.20;66.18;100332.38;5098674;27;45223;-72
2023/07/27 17:59:42;;;;;;;;;5.75;3.00;;;;;22.35;65.88;100359.03;5098383;27;53368;-72
2023/07/27 18:02:07;;;;;;;;;4.33;4.00;;;;;22.40;65.43;100368.13;5098360;27;45297;-72
2023/07/27 18:04:33;;;;;;;;;4.00;3.00;;;;;22.52;65.62;100376.28;5098934;27;45716;-73
2023/07/27 18:06:58;;;;;;;;;4.33;4.33;;;;;22.43;65.79;100358.72;5099054;27;45510;-73
2023/07/27 18:09:23;;;;;;;;;3.00;3.00;;;;;22.58;65.20;100383.50;5096412;27;65769;-70
2023/07/27 18:11:49;;;;;;;;;3.33;3.33;;;;;22.53;65.47;100369.81;5098454;27;45424;-72
2023/07/27 18:14:14;;;;;;;;;4.00;3.25;;;;;22.55;65.62;100370.41;5098443;27;45354;-74
2023/07/27 18:16:39;;;;;;;;;3.25;3.25;;;;;22.58;65.18;100374.53;5099123;27;45535;-72
2023/07/27 18:19:05;;;;;;;;;1.50;1.00;;;;;22.13;65.34;100305.41;5098862;27;45530;-72
2023/07/27 18:21:30;;;;;;;;;3.25;3.25;;;;;22.53;65.57;100372.53;5096725;27;45482;-70
2023/07/27 18:23:56;;;;;;;;;4.00;3.25;;;;;22.43;65.38;100353.31;5098565;27;45351;-72